Time;durP1;ratioP1;P1;durP2;ratioP2;P2;SDS_P1;SDS_P2;PMS_P1;PMS_P2;Temp;Humidity;BMP_temperature;BMP_pressure;BME280_temperature;BME280_humidity;BME280_pressure;Samples;Min_cycle;Max_cycle;Signal;HPM_P1;HPM_P2
2021/10/11 00:00:04;;;;;;;7.55;3.20;;;10.50;93.70;;;;;;5023433;28;20660;-59
2021/10/11 00:02:31;;;;;;;5.43;2.58;;;10.50;93.60;;;;;;5023701;28;20149;-59
2021/10/11 00:04:59;;;;;;;16.33;3.55;;;10.40;93.70;;;;;;5023736;28;20099;-59
2021/10/11 00:07:25;;;;;;;8.90;3.60;;;10.30;94.00;;;;;;5024068;28;20072;-59
2021/10/11 00:09:52;;;;;;;8.60;2.80;;;10.30;94.00;;;;;;5024048;28;20140;-59
2021/10/11 00:12:22;;;;;;;9.93;2.83;;;10.20;94.20;;;;;;5024035;28;20126;-59
2021/10/11 00:14:48;;;;;;;9.07;3.75;;;10.20;94.30;;;;;;5022679;28;20128;-59
2021/10/11 00:17:15;;;;;;;8.68;3.00;;;10.10;94.30;;;;;;5023560;28;20050;-59
2021/10/11 00:19:43;;;;;;;9.40;3.45;;;10.10;94.80;;;;;;5024234;28;20081;-59
2021/10/11 00:22:09;;;;;;;8.95;3.10;;;10.10;94.50;;;;;;5023430;28;20103;-59
2021/10/11 00:24:36;;;;;;;8.07;2.58;;;10.00;94.60;;;;;;5022591;28;20084;-59
2021/10/11 00:27:03;;;;;;;7.78;3.00;;;10.00;94.90;;;;;;5023347;28;20124;-59
2021/10/11 00:29:30;;;;;;;7.47;3.58;;;10.00;94.80;;;;;;5023391;28;20531;-59
2021/10/11 00:31:56;;;;;;;7.05;3.28;;;10.00;94.90;;;;;;5022685;28;20136;-59
2021/10/11 00:34:23;;;;;;;8.10;2.83;;;10.00;95.30;;;;;;5022948;28;20114;-59
2021/10/11 00:36:50;;;;;;;10.25;3.03;;;10.00;95.10;;;;;;5023633;28;20088;-59
2021/10/11 00:39:16;;;;;;;7.10;2.67;;;10.00;95.00;;;;;;5023729;28;20139;-59
2021/10/11 00:41:43;;;;;;;10.88;3.10;;;9.80;94.50;;;;;;5023235;28;20455;-59
2021/10/11 00:44:10;;;;;;;9.45;3.00;;;9.80;95.00;;;;;;5023030;28;20128;-59
2021/10/11 00:46:37;;;;;;;8.00;3.08;;;9.70;95.40;;;;;;5022577;28;20136;-59
2021/10/11 00:49:03;;;;;;;5.22;2.40;;;9.80;95.60;;;;;;5023524;28;20081;-59
2021/10/11 00:51:30;;;;;;;6.97;2.80;;;9.70;95.10;;;;;;5021944;28;20085;-59
2021/10/11 00:53:57;;;;;;;5.93;2.30;;;9.60;95.10;;;;;;5022416;28;20081;-59
2021/10/11 00:56:24;;;;;;;11.43;2.70;;;9.70;95.20;;;;;;5021355;28;20140;-59
2021/10/11 00:58:51;;;;;;;5.30;2.70;;;9.60;95.30;;;;;;5037629;28;20057;-59
2021/10/11 01:01:17;;;;;;;10.38;3.33;;;9.60;95.70;;;;;;5012389;28;20136;-59
2021/10/11 01:03:44;;;;;;;8.43;3.47;;;9.60;95.50;;;;;;5022442;28;20057;-58
2021/10/11 01:06:11;;;;;;;11.00;2.90;;;9.50;95.60;;;;;;5022951;28;20153;-59
2021/10/11 01:08:38;;;;;;;9.95;3.47;;;9.40;95.50;;;;;;5023008;28;20437;-58
2021/10/11 01:11:05;;;;;;;12.20;3.13;;;9.50;95.50;;;;;;5005820;28;20081;-58
2021/10/11 01:13:31;;;;;;;8.95;3.67;;;9.50;95.90;;;;;;5021858;28;20064;-59
2021/10/11 01:15:58;;;;;;;8.90;4.13;;;9.40;95.70;;;;;;5021373;28;20100;-59
2021/10/11 01:18:25;;;;;;;7.90;3.60;;;9.40;95.50;;;;;;5021965;28;20598;-59
2021/10/11 01:20:52;;;;;;;6.93;3.15;;;9.40;96.00;;;;;;5023073;28;20046;-60
2021/10/11 01:23:19;;;;;;;10.38;3.47;;;9.40;96.00;;;;;;5023032;28;20082;-59
2021/10/11 01:25:45;;;;;;;9.43;3.17;;;9.30;96.10;;;;;;5022231;28;20172;-59
2021/10/11 01:28:12;;;;;;;5.82;3.17;;;9.40;96.00;;;;;;5021442;28;20160;-59
2021/10/11 01:30:39;;;;;;;7.68;3.53;;;9.30;95.90;;;;;;5023138;28;20128;-58
2021/10/11 01:33:06;;;;;;;6.30;3.13;;;9.30;96.10;;;;;;5023788;28;20045;-59
2021/10/11 01:35:32;;;;;;;8.18;3.90;;;9.20;96.00;;;;;;5024026;28;20046;-59
2021/10/11 01:37:59;;;;;;;11.05;4.30;;;9.30;96.20;;;;;;5024777;28;20126;-59
2021/10/11 01:40:27;;;;;;;11.32;3.63;;;9.20;96.10;;;;;;5024061;28;20130;-59
2021/10/11 01:42:53;;;;;;;11.85;3.70;;;9.10;96.00;;;;;;5024549;28;20144;-59
2021/10/11 01:45:20;;;;;;;11.23;4.22;;;9.10;96.40;;;;;;5024385;28;20534;-59
2021/10/11 01:47:47;;;;;;;9.23;3.97;;;9.10;96.40;;;;;;5022655;28;20085;-59
2021/10/11 01:50:14;;;;;;;8.60;3.85;;;9.10;96.40;;;;;;5024186;28;20507;-59
2021/10/11 01:52:40;;;;;;;11.95;3.15;;;9.10;96.80;;;;;;5024758;28;20061;-60
2021/10/11 01:55:07;;;;;;;8.60;3.38;;;9.10;96.70;;;;;;5023095;28;20077;-59
2021/10/11 01:57:36;;;;;;;7.50;3.58;;;9.00;96.10;;;;;;5023933;28;20096;-59
2021/10/11 02:00:07;;;;;;;11.27;3.83;;;9.00;96.20;;;;;;5006807;28;20128;-59
2021/10/11 02:02:35;;;;;;;9.40;4.05;;;8.80;96.50;;;;;;5023174;28;20618;-59
2021/10/11 02:05:02;;;;;;;10.70;4.75;;;8.80;96.50;;;;;;5024642;28;20076;-59
2021/10/11 02:07:28;;;;;;;9.80;3.83;;;8.80;96.70;;;;;;5024432;28;20131;-59
2021/10/11 02:09:56;;;;;;;9.95;3.53;;;8.80;96.60;;;;;;5024629;28;20084;-59
2021/10/11 02:12:23;;;;;;;9.10;4.13;;;8.80;96.50;;;;;;5022769;28;20049;-59
2021/10/11 02:14:50;;;;;;;9.15;4.45;;;8.80;96.80;;;;;;5022819;28;20088;-60
2021/10/11 02:17:17;;;;;;;8.85;4.00;;;8.70;97.00;;;;;;5023529;28;20491;-59
2021/10/11 02:19:43;;;;;;;9.05;3.75;;;8.70;96.70;;;;;;5023758;28;20132;-59
2021/10/11 02:22:10;;;;;;;9.00;4.45;;;8.70;96.60;;;;;;5023862;28;20137;-59
2021/10/11 02:24:37;;;;;;;8.07;4.03;;;8.60;96.80;;;;;;5024509;28;20524;-59
2021/10/11 02:27:04;;;;;;;6.65;3.97;;;8.60;96.80;;;;;;5022647;28;20468;-60
2021/10/11 02:29:32;;;;;;;13.90;4.03;;;8.60;96.80;;;;;;5023738;28;20081;-59
2021/10/11 02:31:58;;;;;;;8.40;4.10;;;8.60;96.90;;;;;;5022938;28;20128;-59
2021/10/11 02:34:25;;;;;;;7.50;3.78;;;8.60;97.10;;;;;;5023445;28;20174;-59
2021/10/11 02:36:52;;;;;;;8.57;3.55;;;8.50;97.00;;;;;;5023928;28;20077;-58
2021/10/11 02:39:18;;;;;;;7.80;3.78;;;8.50;97.00;;;;;;5023917;28;20215;-60
2021/10/11 02:41:45;;;;;;;8.20;3.88;;;8.50;97.10;;;;;;5023361;28;20567;-59
2021/10/11 02:44:12;;;;;;;9.25;3.78;;;8.50;97.10;;;;;;5023190;28;20057;-59
2021/10/11 02:46:39;;;;;;;12.30;5.40;;;8.40;97.00;;;;;;5023868;28;20140;-59
2021/10/11 02:49:05;;;;;;;8.43;3.63;;;8.40;97.10;;;;;;5028059;28;20129;-59
2021/10/11 02:51:32;;;;;;;11.05;3.92;;;8.40;97.50;;;;;;5027670;28;20084;-59
2021/10/11 02:53:59;;;;;;;11.60;4.22;;;8.40;97.20;;;;;;5027893;28;20136;-59
2021/10/11 02:56:26;;;;;;;8.77;3.67;;;8.40;97.30;;;;;;5026654;28;20080;-59
2021/10/11 02:58:52;;;;;;;6.93;3.15;;;8.30;97.50;;;;;;5026992;28;20568;-59
2021/10/11 03:01:19;;;;;;;12.27;3.70;;;8.30;97.20;;;;;;5028087;28;20128;-59
2021/10/11 03:03:46;;;;;;;8.40;4.07;;;8.30;97.00;;;;;;5026402;28;20496;-59
2021/10/11 03:06:13;;;;;;;7.88;3.17;;;8.30;97.10;;;;;;5027305;28;20144;-58
2021/10/11 03:08:40;;;;;;;11.25;4.25;;;8.20;97.40;;;;;;5027882;28;20080;-59
2021/10/11 03:11:06;;;;;;;10.50;3.35;;;8.20;97.20;;;;;;5027302;28;20684;-58
2021/10/11 03:13:33;;;;;;;10.10;3.70;;;8.20;97.20;;;;;;5026024;28;20129;-58
2021/10/11 03:16:00;;;;;;;8.90;3.38;;;8.20;97.00;;;;;;5027448;28;20100;-58
2021/10/11 03:18:26;;;;;;;10.43;3.72;;;8.20;97.20;;;;;;5026159;28;20053;-58
2021/10/11 03:20:53;;;;;;;11.73;3.63;;;8.20;97.10;;;;;;5027734;28;20547;-58
2021/10/11 03:23:25;;;;;;;8.57;3.03;;;8.10;97.10;;;;;;5026720;28;20056;-58
2021/10/11 03:25:52;;;;;;;7.47;3.72;;;8.10;97.20;;;;;;5027449;28;20081;-59
2021/10/11 03:28:18;;;;;;;10.20;3.42;;;8.10;97.30;;;;;;5024518;28;20045;-58
2021/10/11 03:30:46;;;;;;;6.75;3.20;;;8.10;97.40;;;;;;5042261;28;20081;-59
2021/10/11 03:33:13;;;;;;;14.73;3.60;;;8.10;97.20;;;;;;5026035;28;20950;-59
2021/10/11 03:35:39;;;;;;;8.65;3.47;;;8.10;97.50;;;;;;5027450;28;20224;-59
2021/10/11 03:38:06;;;;;;;11.68;3.80;;;8.00;97.20;;;;;;5026812;28;20080;-59
2021/10/11 03:40:33;;;;;;;10.25;3.55;;;8.00;97.50;;;;;;5027011;28;20415;-59
2021/10/11 03:43:00;;;;;;;8.45;3.90;;;8.00;97.20;;;;;;5042012;28;20073;-59
2021/10/11 03:45:27;;;;;;;4.88;3.30;;;7.90;97.50;;;;;;5025736;28;20104;-59
2021/10/11 03:47:53;;;;;;;5.50;2.70;;;7.90;97.30;;;;;;5027200;28;20136;-59
2021/10/11 03:50:20;;;;;;;5.20;2.80;;;7.90;97.70;;;;;;5026737;28;20103;-59
2021/10/11 03:52:47;;;;;;;5.68;3.15;;;7.90;97.60;;;;;;5026853;28;20045;-59
2021/10/11 03:55:14;;;;;;;10.80;3.45;;;7.90;97.70;;;;;;5026988;28;20128;-59
2021/10/11 03:57:40;;;;;;;7.55;3.42;;;7.90;97.70;;;;;;5025569;28;20154;-59
2021/10/11 04:00:10;;;;;;;10.45;3.72;;;7.80;97.90;;;;;;5025932;28;20642;-59
2021/10/11 04:02:36;;;;;;;6.28;3.25;;;7.80;98.30;;;;;;5026088;28;20099;-59
2021/10/11 04:05:03;;;;;;;10.98;3.05;;;7.80;98.10;;;;;;5026462;28;20132;-59
2021/10/11 04:07:31;;;;;;;9.48;3.97;;;7.80;97.70;;;;;;5025702;28;20555;-59
2021/10/11 04:10:01;;;;;;;7.80;4.85;;;7.80;97.80;;;;;;5026576;28;20185;-58
2021/10/11 04:12:38;;;;;;;6.43;3.35;;;7.80;97.90;;;;;;5024671;28;20136;-59
2021/10/11 04:15:06;;;;;;;5.78;3.05;;;7.80;98.00;;;;;;5025043;28;20141;-59
2021/10/11 04:17:38;;;;;;;8.70;3.20;;;7.80;97.80;;;;;;5025505;28;20132;-59
2021/10/11 04:20:06;;;;;;;13.60;3.92;;;7.70;97.60;;;;;;5025454;28;20053;-59
2021/10/11 04:22:33;;;;;;;8.35;3.10;;;7.70;97.60;;;;;;5026383;28;20154;-59
2021/10/11 04:25:00;;;;;;;8.70;3.88;;;7.60;97.60;;;;;;5026357;28;20041;-59
2021/10/11 04:27:27;;;;;;;9.32;3.08;;;7.60;97.70;;;;;;5025663;28;20643;-59
2021/10/11 04:29:54;;;;;;;7.30;3.35;;;7.60;97.70;;;;;;5026500;28;20141;-58
2021/10/11 04:32:20;;;;;;;10.95;3.75;;;7.50;98.20;;;;;;5025354;28;20679;-59
2021/10/11 04:34:47;;;;;;;6.63;3.35;;;7.50;98.00;;;;;;5041620;28;20080;-59
2021/10/11 04:37:14;;;;;;;5.45;3.28;;;7.50;98.00;;;;;;5026665;28;20129;-59
2021/10/11 04:39:40;;;;;;;7.85;3.78;;;7.50;97.90;;;;;;5029221;28;20457;-59
2021/10/11 04:42:07;;;;;;;9.90;3.72;;;7.50;97.90;;;;;;5024421;28;20089;-59
2021/10/11 04:44:34;;;;;;;7.38;3.47;;;7.40;98.10;;;;;;5023238;28;20049;-59
2021/10/11 04:47:01;;;;;;;9.23;3.78;;;7.40;98.20;;;;;;5022507;28;20136;-59
2021/10/11 04:49:27;;;;;;;10.25;3.75;;;7.40;98.00;;;;;;5024332;28;20080;-60
2021/10/11 04:51:54;;;;;;;8.27;3.97;;;7.40;98.30;;;;;;5023809;28;20076;-59
2021/10/11 04:54:21;;;;;;;10.15;4.05;;;7.50;98.50;;;;;;5023290;28;20132;-60
2021/10/11 04:56:47;;;;;;;7.90;3.92;;;7.50;98.60;;;;;;5024741;28;20073;-61
2021/10/11 04:59:14;;;;;;;9.32;3.20;;;7.50;98.30;;;;;;5026253;28;20239;-65
2021/10/11 05:01:41;;;;;;;9.27;3.80;;;7.50;98.40;;;;;;5022160;28;20095;-59
2021/10/11 05:04:09;;;;;;;8.70;3.70;;;7.50;98.30;;;;;;5023665;28;20037;-59
2021/10/11 05:06:36;;;;;;;6.43;3.33;;;7.50;98.00;;;;;;5024744;28;20459;-59
2021/10/11 05:09:03;;;;;;;7.78;3.50;;;7.50;98.00;;;;;;5024082;28;20132;-59
2021/10/11 05:11:30;;;;;;;9.02;4.25;;;7.50;98.10;;;;;;5020592;28;20045;-59
2021/10/11 05:13:56;;;;;;;5.75;3.33;;;7.40;98.40;;;;;;5019133;28;20134;-60
2021/10/11 05:16:24;;;;;;;12.45;4.00;;;7.40;98.10;;;;;;5019769;28;20045;-58
2021/10/11 05:18:51;;;;;;;10.82;3.88;;;7.30;98.30;;;;;;5017871;28;20096;-59
2021/10/11 05:21:17;;;;;;;11.02;4.47;;;7.30;98.50;;;;;;5017653;28;20136;-59
2021/10/11 05:23:44;;;;;;;9.60;3.28;;;7.30;98.30;;;;;;5018575;28;20498;-59
2021/10/11 05:26:11;;;;;;;7.70;3.83;;;7.30;98.30;;;;;;5017611;28;20164;-59
2021/10/11 05:28:38;;;;;;;14.07;4.57;;;7.40;98.40;;;;;;5016952;28;20136;-59
2021/10/11 05:31:04;;;;;;;15.95;6.63;;;7.40;98.40;;;;;;5018524;28;20126;-59
2021/10/11 05:33:31;;;;;;;12.27;5.10;;;7.40;98.50;;;;;;5024257;28;20248;-59
2021/10/11 05:35:58;;;;;;;12.00;4.28;;;7.40;98.50;;;;;;5024846;28;20140;-59
2021/10/11 05:38:25;;;;;;;11.20;4.82;;;7.30;98.50;;;;;;5018769;28;20072;-59
2021/10/11 05:40:53;;;;;;;10.48;4.28;;;7.30;98.20;;;;;;5022135;28;20761;-59
2021/10/11 05:43:20;;;;;;;13.60;4.63;;;7.30;98.60;;;;;;5013151;28;20272;-59
2021/10/11 05:45:47;;;;;;;8.27;3.55;;;7.30;98.20;;;;;;5008486;28;20442;-59
2021/10/11 05:48:14;;;;;;;9.10;4.43;;;7.30;98.30;;;;;;5016068;28;20472;-59
2021/10/11 05:50:40;;;;;;;8.98;3.33;;;7.30;98.10;;;;;;5017275;28;20141;-59
2021/10/11 05:53:07;;;;;;;9.48;4.65;;;7.20;98.40;;;;;;5015214;28;20268;-58
2021/10/11 05:55:34;;;;;;;11.90;4.53;;;7.20;98.80;;;;;;5016728;28;20263;-59
2021/10/11 05:58:01;;;;;;;12.50;6.22;;;7.20;98.30;;;;;;5019739;28;20128;-59
2021/10/11 06:00:27;;;;;;;15.00;6.00;;;7.20;98.60;;;;;;5018718;28;20513;-59
2021/10/11 06:02:54;;;;;;;10.63;3.95;;;7.20;98.70;;;;;;5018729;28;20053;-58
2021/10/11 06:05:21;;;;;;;12.18;7.05;;;7.20;98.60;;;;;;5018071;28;20128;-59
2021/10/11 06:07:48;;;;;;;9.77;5.22;;;7.20;98.50;;;;;;5017871;28;20568;-59
2021/10/11 06:10:14;;;;;;;9.35;3.83;;;7.20;98.60;;;;;;5033994;28;20101;-59
2021/10/11 06:12:42;;;;;;;17.00;4.45;;;7.20;98.60;;;;;;5017916;28;20121;-59
2021/10/11 06:15:10;;;;;;;6.43;3.75;;;7.20;98.70;;;;;;5018009;28;20804;-59
2021/10/11 06:17:37;;;;;;;11.60;3.97;;;7.20;99.00;;;;;;5016828;28;20465;-58
2021/10/11 06:20:04;;;;;;;8.43;3.63;;;7.20;98.90;;;;;;5018586;28;20148;-58
2021/10/11 06:22:31;;;;;;;12.82;4.75;;;7.20;98.80;;;;;;5017109;28;20076;-59
2021/10/11 06:24:57;;;;;;;17.10;3.70;;;7.20;99.20;;;;;;5016984;28;20147;-59
2021/10/11 06:27:27;;;;;;;5.22;3.28;;;7.30;98.80;;;;;;5019365;28;20173;-58
2021/10/11 06:29:54;;;;;;;10.30;3.88;;;7.20;98.70;;;;;;5018409;28;20080;-58
2021/10/11 06:32:21;;;;;;;18.25;5.43;;;7.30;99.30;;;;;;5018340;28;20487;-59
2021/10/11 06:34:47;;;;;;;20.08;4.80;;;7.30;99.10;;;;;;5018263;28;20136;-59
2021/10/11 06:37:14;;;;;;;11.90;4.47;;;7.30;98.80;;;;;;5017942;28;20049;-58
2021/10/11 06:39:42;;;;;;;13.75;4.80;;;7.30;98.80;;;;;;5017026;28;20069;-58
2021/10/11 06:42:09;;;;;;;11.75;4.07;;;7.30;98.90;;;;;;5017749;28;20132;-58
2021/10/11 06:44:36;;;;;;;8.85;3.65;;;7.40;99.50;;;;;;5017492;28;20493;-59
2021/10/11 06:47:02;;;;;;;9.25;3.90;;;7.40;99.30;;;;;;5017542;28;20123;-59
2021/10/11 06:49:29;;;;;;;8.63;3.88;;;7.50;99.80;;;;;;5018215;28;20500;-59
2021/10/11 06:51:56;;;;;;;11.02;4.18;;;7.50;99.50;;;;;;5017426;28;20136;-59
2021/10/11 06:54:23;;;;;;;9.15;4.18;;;7.60;99.30;;;;;;5016836;28;20141;-59
2021/10/11 06:56:50;;;;;;;8.40;4.47;;;7.70;99.40;;;;;;5018110;28;20132;-59
2021/10/11 06:59:16;;;;;;;13.95;5.78;;;7.70;99.20;;;;;;5018232;28;20095;-59
2021/10/11 07:01:43;;;;;;;9.85;5.28;;;7.80;99.10;;;;;;5017615;28;20148;-58
2021/10/11 07:04:31;;;;;;;11.75;4.38;;;7.80;99.20;;;;;;5017291;28;20412;-59
2021/10/11 07:06:58;;;;;;;11.15;4.38;;;7.90;99.20;;;;;;5017680;28;20163;-60
2021/10/11 07:09:24;;;;;;;9.25;4.05;;;7.90;99.00;;;;;;5018379;28;20191;-58
2021/10/11 07:11:51;;;;;;;12.15;4.55;;;8.00;99.00;;;;;;5017716;28;20172;-59
2021/10/11 07:14:21;;;;;;;19.20;4.47;;;8.00;98.90;;;;;;5016843;28;20132;-58
2021/10/11 07:16:49;;;;;;;8.80;3.80;;;8.00;98.90;;;;;;5016194;28;20564;-58
2021/10/11 07:19:15;;;;;;;12.43;5.00;;;8.10;99.00;;;;;;5015982;28;20088;-58
2021/10/11 07:21:42;;;;;;;17.15;4.60;;;8.20;99.00;;;;;;5017192;28;20144;-61
2021/10/11 07:24:14;;;;;;;9.30;4.60;;;8.30;99.00;;;;;;5017118;28;20164;-58
2021/10/11 07:26:41;;;;;;;10.70;5.45;;;8.30;98.90;;;;;;5017023;28;20267;-58
2021/10/11 07:29:07;;;;;;;14.40;5.47;;;8.40;99.10;;;;;;5015472;28;20599;-58
2021/10/11 07:31:34;;;;;;;12.30;5.15;;;8.40;99.10;;;;;;5014878;28;20115;-58
2021/10/11 07:34:01;;;;;;;13.02;5.00;;;8.50;99.20;;;;;;5020093;28;20128;-58
2021/10/11 07:36:28;;;;;;;17.05;4.72;;;8.60;99.00;;;;;;5021422;28;20081;-58
2021/10/11 07:38:55;;;;;;;15.75;5.53;;;8.70;98.90;;;;;;5019004;28;20164;-58
2021/10/11 07:41:22;;;;;;;11.38;4.88;;;8.70;98.80;;;;;;5020859;28;20129;-58
2021/10/11 07:43:48;;;;;;;14.55;5.32;;;8.80;98.80;;;;;;5019479;28;20077;-58
2021/10/11 07:46:15;;;;;;;17.92;5.30;;;9.00;98.80;;;;;;5017686;28;20236;-58
2021/10/11 07:48:42;;;;;;;12.00;4.25;;;9.00;98.90;;;;;;5018535;28;20046;-58
2021/10/11 07:51:09;;;;;;;14.57;5.80;;;9.10;98.60;;;;;;5019662;28;20148;-58
2021/10/11 07:53:38;;;;;;;13.77;4.82;;;9.30;98.40;;;;;;5019688;28;20049;-59
2021/10/11 07:56:06;;;;;;;12.45;4.05;;;9.30;98.30;;;;;;5019766;28;20099;-59
2021/10/11 07:58:33;;;;;;;14.40;5.50;;;9.50;98.10;;;;;;5019074;28;20133;-60
2021/10/11 08:00:59;;;;;;;12.10;4.90;;;9.60;98.10;;;;;;5020958;28;20103;-58
2021/10/11 08:03:28;;;;;;;13.25;5.40;;;9.60;98.00;;;;;;5019811;28;20533;-59
2021/10/11 08:05:55;;;;;;;13.73;4.43;;;9.70;98.00;;;;;;5021083;28;20586;-59
2021/10/11 08:08:22;;;;;;;15.43;5.05;;;9.80;97.90;;;;;;5020016;28;20081;-59
2021/10/11 08:10:48;;;;;;;15.20;6.30;;;9.80;97.90;;;;;;5019648;28;20149;-59
2021/10/11 08:13:15;;;;;;;10.90;5.80;;;9.90;97.90;;;;;;5020062;28;20124;-59
2021/10/11 08:15:42;;;;;;;17.90;6.13;;;10.00;97.90;;;;;;5017453;28;20103;-59
2021/10/11 08:18:11;;;;;;;18.70;4.90;;;10.00;97.90;;;;;;5020142;28;20116;-60
2021/10/11 08:20:38;;;;;;;13.65;6.00;;;10.10;97.90;;;;;;5020552;28;20149;-59
2021/10/11 08:23:05;;;;;;;13.35;5.40;;;10.10;97.80;;;;;;5020625;28;20508;-58
2021/10/11 08:25:32;;;;;;;17.73;5.25;;;10.20;97.70;;;;;;5020124;28;20115;-58
2021/10/11 08:27:58;;;;;;;16.60;5.40;;;10.30;97.60;;;;;;5017742;28;20128;-58
2021/10/11 08:30:25;;;;;;;15.68;7.18;;;10.30;97.40;;;;;;5017229;28;20561;-57
2021/10/11 08:32:52;;;;;;;15.43;5.53;;;10.40;97.30;;;;;;5017029;28;20043;-58
2021/10/11 08:35:18;;;;;;;12.25;5.35;;;10.50;97.20;;;;;;5018237;28;20647;-58
2021/10/11 08:37:45;;;;;;;16.15;5.03;;;10.50;97.20;;;;;;5018975;28;20556;-58
2021/10/11 08:40:12;;;;;;;14.45;4.80;;;10.50;97.00;;;;;;5013228;28;20543;-58
2021/10/11 08:42:40;;;;;;;14.70;5.72;;;10.60;96.80;;;;;;5032450;28;20132;-58
2021/10/11 08:45:07;;;;;;;14.95;5.93;;;10.70;96.90;;;;;;5016738;28;20098;-58
2021/10/11 08:47:34;;;;;;;15.57;5.57;;;10.80;96.90;;;;;;5015743;28;20162;-59
2021/10/11 08:50:00;;;;;;;17.17;6.07;;;10.90;96.80;;;;;;5016604;28;20048;-58
2021/10/11 08:52:27;;;;;;;18.52;5.82;;;11.00;96.40;;;;;;5018577;28;20114;-59
2021/10/11 08:54:54;;;;;;;9.85;5.25;;;11.10;96.30;;;;;;5018585;28;20557;-59
2021/10/11 08:57:23;;;;;;;15.18;5.20;;;11.20;96.20;;;;;;5020194;28;20531;-59
2021/10/11 08:59:50;;;;;;;12.52;6.25;;;11.30;95.70;;;;;;5019885;28;20053;-59
2021/10/11 09:02:20;;;;;;;10.73;3.85;;;11.40;95.50;;;;;;5017962;28;20133;-59
2021/10/11 09:04:51;;;;;;;11.02;3.00;;;11.60;95.10;;;;;;5013717;28;20088;-59
2021/10/11 09:07:21;;;;;;;9.63;2.55;;;11.70;93.70;;;;;;5019085;28;20152;-59
2021/10/11 09:09:48;;;;;;;16.63;3.22;;;11.70;93.90;;;;;;5018208;28;20084;-58
2021/10/11 09:12:23;;;;;;;8.38;2.67;;;11.90;94.00;;;;;;5017237;28;20485;-59
2021/10/11 09:15:10;;;;;;;12.65;3.72;;;12.00;93.60;;;;;;5014112;28;20119;-59
2021/10/11 09:17:41;;;;;;;11.30;2.97;;;12.10;91.90;;;;;;5015950;28;20148;-59
2021/10/11 09:20:09;;;;;;;13.18;2.97;;;12.10;92.50;;;;;;5013297;28;20389;-59
2021/10/11 09:22:37;;;;;;;14.15;3.28;;;12.00;92.10;;;;;;5014485;28;20077;-59
2021/10/11 09:25:04;;;;;;;8.10;2.83;;;12.10;92.10;;;;;;5013854;28;20210;-58
2021/10/11 09:27:43;;;;;;;8.18;2.83;;;12.00;91.90;;;;;;5015559;28;20095;-59
2021/10/11 09:30:11;;;;;;;10.45;3.35;;;12.10;91.40;;;;;;5017004;28;20045;-59
2021/10/11 09:32:38;;;;;;;15.73;2.55;;;12.20;91.20;;;;;;5016290;28;20135;-59
2021/10/11 09:35:15;;;;;;;8.25;3.22;;;12.30;90.90;;;;;;5016390;28;20131;-59
2021/10/11 09:37:47;;;;;;;8.95;2.55;;;12.40;90.70;;;;;;5014934;28;20081;-59
2021/10/11 09:40:14;;;;;;;8.82;2.65;;;12.50;91.40;;;;;;5015453;28;20487;-59
2021/10/11 09:42:40;;;;;;;7.65;2.17;;;12.70;91.80;;;;;;5013357;28;20250;-59
2021/10/11 09:45:08;;;;;;;9.10;2.78;;;12.80;91.50;;;;;;5015741;28;20115;-59
2021/10/11 09:50:03;;;;;;;6.63;2.72;;;13.00;86.70;;;;;;5023262;28;20160;-59
2021/10/11 09:52:30;;;;;;;11.18;3.25;;;13.00;89.20;;;;;;5015414;28;20147;-60
2021/10/11 09:54:57;;;;;;;7.05;2.90;;;12.90;90.20;;;;;;5016633;28;20136;-59
2021/10/11 09:57:24;;;;;;;11.25;2.75;;;13.00;89.10;;;;;;5016422;28;20414;-59
2021/10/11 09:59:52;;;;;;;10.18;4.45;;;13.00;90.50;;;;;;5016210;28;20129;-59
2021/10/11 10:02:25;;;;;;;8.85;3.03;;;13.20;89.90;;;;;;5012741;28;20045;-59
2021/10/11 10:04:55;;;;;;;17.38;4.20;;;13.30;85.90;;;;;;4997975;28;20049;-58
2021/10/11 10:07:24;;;;;;;8.02;2.60;;;13.30;87.10;;;;;;5014508;28;20084;-59
2021/10/11 10:09:51;;;;;;;9.63;3.33;;;13.30;87.70;;;;;;5019476;28;20175;-60
2021/10/11 10:12:18;;;;;;;8.00;3.38;;;13.40;88.20;;;;;;5014074;28;20068;-58
2021/10/11 10:14:55;;;;;;;8.25;3.47;;;13.40;85.30;;;;;;5015517;28;20442;-59
2021/10/11 10:17:33;;;;;;;11.07;3.70;;;13.40;87.90;;;;;;5015287;28;20605;-58
2021/10/11 10:20:13;;;;;;;11.40;3.00;;;13.50;84.80;;;;;;5015840;28;20250;-59
2021/10/11 10:22:42;;;;;;;8.20;2.10;;;13.50;84.50;;;;;;5017395;28;20049;-58
2021/10/11 10:25:10;;;;;;;6.45;2.00;;;13.60;86.10;;;;;;5016504;28;20445;-59
2021/10/11 10:27:39;;;;;;;9.40;2.83;;;13.60;87.20;;;;;;5014741;28;20188;-58
2021/10/11 10:30:25;;;;;;;7.40;2.05;;;13.70;87.80;;;;;;5015633;28;20128;-58
2021/10/11 10:33:03;;;;;;;9.77;2.65;;;13.80;85.90;;;;;;5013710;28;20084;-59
2021/10/11 10:35:33;;;;;;;9.95;3.25;;;13.70;82.50;;;;;;5014904;28;20072;-58
2021/10/11 10:38:00;;;;;;;11.73;3.17;;;13.70;84.60;;;;;;5014652;28;20312;-58
2021/10/11 10:40:31;;;;;;;7.70;2.38;;;13.60;83.10;;;;;;5014743;28;20154;-59
2021/10/11 10:43:06;;;;;;;8.80;2.83;;;13.70;86.20;;;;;;5013422;28;20395;-59
2021/10/11 10:45:34;;;;;;;9.43;2.47;;;13.60;82.80;;;;;;5017082;28;20113;-59
2021/10/11 10:48:01;;;;;;;8.30;2.42;;;13.60;83.50;;;;;;5015868;28;20128;-58
2021/10/11 10:50:28;;;;;;;7.95;2.30;;;13.70;85.50;;;;;;5015986;28;20814;-59
2021/10/11 10:52:59;;;;;;;12.18;2.10;;;13.80;84.70;;;;;;5017139;28;20060;-59
2021/10/11 10:55:26;;;;;;;8.40;2.58;;;13.80;84.50;;;;;;5015892;28;20362;-59
2021/10/11 10:58:03;;;;;;;9.25;2.40;;;13.70;82.60;;;;;;5016646;28;20127;-59
2021/10/11 11:00:30;;;;;;;9.13;2.22;;;13.80;83.20;;;;;;5016728;28;20133;-60
2021/10/11 11:02:57;;;;;;;8.02;2.30;;;13.90;84.70;;;;;;5018481;28;20584;-59
2021/10/11 11:05:26;;;;;;;15.00;2.30;;;14.00;85.40;;;;;;5016037;28;20254;-59
2021/10/11 11:07:54;;;;;;;11.85;2.28;;;14.00;81.70;;;;;;5014942;28;20081;-59
2021/10/11 11:10:28;;;;;;;11.75;2.10;;;14.00;82.40;;;;;;5019131;28;20041;-59
2021/10/11 11:13:06;;;;;;;10.45;2.53;;;14.00;82.30;;;;;;5017272;28;20055;-59
2021/10/11 11:15:38;;;;;;;11.13;2.83;;;13.90;82.20;;;;;;5017511;28;20648;-59
2021/10/11 11:18:10;;;;;;;11.45;2.70;;;14.00;82.80;;;;;;5016139;28;20107;-58
2021/10/11 11:20:38;;;;;;;9.25;2.45;;;14.10;84.00;;;;;;5018527;28;20069;-59
2021/10/11 11:23:10;;;;;;;6.07;2.60;;;14.20;82.90;;;;;;5020541;28;20156;-58
2021/10/11 11:25:41;;;;;;;6.72;2.53;;;14.10;82.30;;;;;;5018334;28;20037;-59
2021/10/11 11:28:09;;;;;;;9.10;2.47;;;14.10;80.40;;;;;;5019843;28;20526;-58
2021/10/11 11:30:36;;;;;;;5.97;2.17;;;14.00;81.50;;;;;;5019001;28;20072;-59
2021/10/11 11:33:07;;;;;;;8.18;2.83;;;14.00;81.70;;;;;;5019378;28;20108;-59
2021/10/11 11:35:36;;;;;;;8.60;2.13;;;14.00;81.40;;;;;;5018716;28;20144;-59
2021/10/11 11:38:07;;;;;;;10.27;3.00;;;14.20;83.90;;;;;;5016915;28;20144;-59
2021/10/11 11:40:41;;;;;;;7.25;2.92;;;14.20;82.40;;;;;;5018518;28;20135;-59
2021/10/11 11:43:09;;;;;;;4.88;1.92;;;14.20;82.20;;;;;;5018142;28;20093;-59
2021/10/11 11:45:41;;;;;;;6.60;2.10;;;14.20;82.00;;;;;;5018874;28;20049;-59
2021/10/11 11:48:18;;;;;;;8.70;2.80;;;14.30;82.00;;;;;;5018224;28;20050;-58
2021/10/11 11:50:47;;;;;;;8.63;2.72;;;14.40;80.60;;;;;;5016581;28;20145;-59
2021/10/11 11:53:14;;;;;;;8.38;2.60;;;14.50;79.30;;;;;;5018525;28;20569;-59
2021/10/11 11:55:44;;;;;;;9.52;3.25;;;14.40;80.40;;;;;;5020098;28;20156;-58
2021/10/11 11:58:14;;;;;;;11.32;2.67;;;14.40;80.00;;;;;;5019922;28;20069;-58
2021/10/11 12:00:45;;;;;;;5.88;2.42;;;14.60;81.90;;;;;;5020832;28;20081;-59
2021/10/11 12:03:12;;;;;;;6.07;2.70;;;14.70;78.70;;;;;;5001277;28;20045;-59
2021/10/11 12:05:41;;;;;;;8.50;2.75;;;14.80;79.10;;;;;;5019847;28;20253;-59
2021/10/11 12:08:08;;;;;;;8.18;2.72;;;14.90;80.70;;;;;;5002107;28;20472;-59
2021/10/11 12:10:35;;;;;;;6.05;2.40;;;15.10;77.10;;;;;;5021147;28;20049;-59
2021/10/11 12:13:04;;;;;;;8.38;2.70;;;15.10;77.30;;;;;;5018643;28;20157;-59
2021/10/11 12:15:32;;;;;;;6.47;2.38;;;15.20;77.80;;;;;;5014216;28;20590;-59
2021/10/11 12:18:02;;;;;;;8.20;2.58;;;15.30;77.20;;;;;;5013416;28;20480;-59
2021/10/11 12:20:43;;;;;;;10.20;2.80;;;15.60;77.50;;;;;;5017407;28;20056;-59
2021/10/11 12:23:10;;;;;;;9.85;3.03;;;16.10;75.10;;;;;;5015447;28;20049;-59
2021/10/11 12:25:39;;;;;;;9.43;2.72;;;16.40;73.00;;;;;;5018806;28;20045;-59
2021/10/11 12:28:19;;;;;;;8.45;2.72;;;16.60;74.00;;;;;;5015273;28;20207;-59
2021/10/11 12:30:47;;;;;;;7.68;2.67;;;16.90;71.80;;;;;;5012363;28;20108;-59
2021/10/11 12:33:17;;;;;;;10.07;2.80;;;16.80;71.20;;;;;;5016546;28;20134;-59
2021/10/11 12:35:47;;;;;;;8.00;2.35;;;16.90;71.00;;;;;;5015753;28;20479;-59
2021/10/11 12:38:15;;;;;;;6.82;3.00;;;17.10;70.80;;;;;;5017430;28;20622;-59
2021/10/11 12:40:43;;;;;;;11.95;3.28;;;17.20;71.30;;;;;;5018211;28;20296;-59
2021/10/11 12:43:13;;;;;;;13.32;3.22;;;17.10;68.50;;;;;;5015007;28;20362;-59
2021/10/11 12:45:40;;;;;;;12.45;2.80;;;17.40;68.60;;;;;;5015249;28;20061;-59
2021/10/11 12:48:07;;;;;;;6.70;2.28;;;17.70;70.60;;;;;;5017264;28;20065;-59
2021/10/11 12:50:34;;;;;;;7.47;2.50;;;17.80;69.20;;;;;;5017148;28;20045;-60
2021/10/11 12:53:01;;;;;;;8.43;2.92;;;17.90;68.40;;;;;;5016235;28;20338;-59